Airport View

Enter AWOS ICAO identifier for current METAR.

ex. KFNL

KCGC 191915Z AUTO 25012G17KT 10SM VCTS BKN021 OVC030 30/25 A2996 RMK AO2 LTG DSNT SW THRU NE

19 Jun 2019 19:17

Frequency: 118.325

Phone: 352-563-6600

Other Area AWOS: KINF - KBKV - KOCF - KX60

TAF KLEE 191725Z 1918/2018 24010KT P6SM VCTS SCT035CB BKN060 TEMPO 1918/1922 VRB15G30KT 3SM TSRA BKN030CB FM192300 23007KT P6SM FEW035 SCT080 BKN250